sensor_id;sensor_type;location;lat;lon;timestamp;P1;durP1;ratioP1;P2;durP2;ratioP2
51048;SDS011;37084;55.228;36.450;2023-06-14T00:00:26;8.60;;;3.92;;
51048;SDS011;37084;55.228;36.450;2023-06-14T00:03:28;8.50;;;4.40;;
51048;SDS011;37084;55.228;36.450;2023-06-14T00:06:29;9.68;;;4.95;;
51048;SDS011;37084;55.228;36.450;2023-06-14T00:09:31;7.30;;;4.55;;
51048;SDS011;37084;55.228;36.450;2023-06-14T00:12:32;7.97;;;4.22;;
51048;SDS011;37084;55.228;36.450;2023-06-14T00:15:33;9.40;;;4.15;;
51048;SDS011;37084;55.228;36.450;2023-06-14T00:18:35;7.50;;;3.95;;
51048;SDS011;37084;55.228;36.450;2023-06-14T00:21:37;7.55;;;4.63;;
51048;SDS011;37084;55.228;36.450;2023-06-14T00:24:39;9.55;;;4.57;;
51048;SDS011;37084;55.228;36.450;2023-06-14T00:27:41;12.55;;;4.85;;
51048;SDS011;37084;55.228;36.450;2023-06-14T00:30:42;9.82;;;4.43;;
51048;SDS011;37084;55.228;36.450;2023-06-14T00:33:47;11.68;;;4.57;;
51048;SDS011;37084;55.228;36.450;2023-06-14T00:36:48;9.05;;;5.20;;
51048;SDS011;37084;55.228;36.450;2023-06-14T00:39:49;8.23;;;4.25;;
51048;SDS011;37084;55.228;36.450;2023-06-14T00:42:53;10.77;;;4.82;;
51048;SDS011;37084;55.228;36.450;2023-06-14T00:45:54;9.15;;;5.30;;
51048;SDS011;37084;55.228;36.450;2023-06-14T00:48:56;9.77;;;4.68;;
51048;SDS011;37084;55.228;36.450;2023-06-14T00:52:01;10.98;;;4.93;;
51048;SDS011;37084;55.228;36.450;2023-06-14T00:55:04;9.98;;;4.97;;
51048;SDS011;37084;55.228;36.450;2023-06-14T00:58:07;8.93;;;4.65;;
51048;SDS011;37084;55.228;36.450;2023-06-14T01:01:09;8.07;;;4.68;;
51048;SDS011;37084;55.228;36.450;2023-06-14T01:04:10;8.75;;;4.63;;
51048;SDS011;37084;55.228;36.450;2023-06-14T01:07:15;11.00;;;4.47;;
51048;SDS011;37084;55.228;36.450;2023-06-14T01:13:54;6.93;;;3.92;;
51048;SDS011;37084;55.228;36.450;2023-06-14T01:16:57;7.35;;;4.00;;
51048;SDS011;37084;55.228;36.450;2023-06-14T01:20:01;7.57;;;4.45;;
51048;SDS011;37084;55.228;36.450;2023-06-14T01:23:04;7.43;;;4.22;;
51048;SDS011;37084;55.228;36.450;2023-06-14T01:26:06;7.25;;;4.40;;
51048;SDS011;37084;55.228;36.450;2023-06-14T01:29:07;9.32;;;4.68;;
51048;SDS011;37084;55.228;36.450;2023-06-14T01:32:09;10.13;;;5.07;;
51048;SDS011;37084;55.228;36.450;2023-06-14T01:35:10;8.88;;;4.50;;
51048;SDS011;37084;55.228;36.450;2023-06-14T01:38:12;9.13;;;4.30;;
51048;SDS011;37084;55.228;36.450;2023-06-14T01:41:14;8.35;;;4.13;;
51048;SDS011;37084;55.228;36.450;2023-06-14T01:44:16;8.13;;;4.22;;
51048;SDS011;37084;55.228;36.450;2023-06-14T01:47:18;8.50;;;4.38;;
51048;SDS011;37084;55.228;36.450;2023-06-14T01:50:20;8.32;;;4.30;;
51048;SDS011;37084;55.228;36.450;2023-06-14T01:53:21;8.85;;;4.50;;
51048;SDS011;37084;55.228;36.450;2023-06-14T01:56:23;8.02;;;4.55;;
51048;SDS011;37084;55.228;36.450;2023-06-14T01:59:24;8.13;;;4.30;;
51048;SDS011;37084;55.228;36.450;2023-06-14T02:02:26;8.65;;;4.55;;
51048;SDS011;37084;55.228;36.450;2023-06-14T02:05:27;9.35;;;4.47;;
51048;SDS011;37084;55.228;36.450;2023-06-14T02:08:29;8.88;;;4.20;;
51048;SDS011;37084;55.228;36.450;2023-06-14T02:11:30;9.52;;;4.15;;
51048;SDS011;37084;55.228;36.450;2023-06-14T02:14:32;8.40;;;4.53;;
51048;SDS011;37084;55.228;36.450;2023-06-14T02:17:34;9.32;;;4.47;;
51048;SDS011;37084;55.228;36.450;2023-06-14T02:20:41;10.25;;;4.90;;
51048;SDS011;37084;55.228;36.450;2023-06-14T02:23:42;7.70;;;4.93;;
51048;SDS011;37084;55.228;36.450;2023-06-14T02:26:43;7.03;;;4.25;;
51048;SDS011;37084;55.228;36.450;2023-06-14T02:29:49;8.38;;;4.75;;
51048;SDS011;37084;55.228;36.450;2023-06-14T02:32:50;8.82;;;4.32;;
51048;SDS011;37084;55.228;36.450;2023-06-14T02:35:51;9.65;;;4.53;;
51048;SDS011;37084;55.228;36.450;2023-06-14T02:38:53;6.82;;;4.13;;
51048;SDS011;37084;55.228;36.450;2023-06-14T02:41:55;9.98;;;4.45;;
51048;SDS011;37084;55.228;36.450;2023-06-14T02:44:56;8.52;;;4.50;;
51048;SDS011;37084;55.228;36.450;2023-06-14T02:47:57;8.57;;;4.13;;
51048;SDS011;37084;55.228;36.450;2023-06-14T02:50:59;8.90;;;4.10;;
51048;SDS011;37084;55.228;36.450;2023-06-14T02:54:00;9.35;;;4.80;;
51048;SDS011;37084;55.228;36.450;2023-06-14T02:57:02;8.43;;;5.13;;
51048;SDS011;37084;55.228;36.450;2023-06-14T03:00:04;9.27;;;4.40;;
51048;SDS011;37084;55.228;36.450;2023-06-14T03:03:09;8.73;;;4.10;;
51048;SDS011;37084;55.228;36.450;2023-06-14T03:06:15;8.18;;;4.47;;
51048;SDS011;37084;55.228;36.450;2023-06-14T03:09:19;9.07;;;5.00;;
51048;SDS011;37084;55.228;36.450;2023-06-14T03:12:21;9.45;;;4.50;;
51048;SDS011;37084;55.228;36.450;2023-06-14T03:15:24;9.38;;;4.80;;
51048;SDS011;37084;55.228;36.450;2023-06-14T03:18:27;10.15;;;4.80;;
51048;SDS011;37084;55.228;36.450;2023-06-14T03:21:31;12.45;;;5.45;;
51048;SDS011;37084;55.228;36.450;2023-06-14T03:24:35;8.60;;;5.18;;
51048;SDS011;37084;55.228;36.450;2023-06-14T03:27:42;9.80;;;5.07;;
51048;SDS011;37084;55.228;36.450;2023-06-14T03:30:44;9.70;;;5.00;;
51048;SDS011;37084;55.228;36.450;2023-06-14T03:33:46;9.98;;;5.22;;
51048;SDS011;37084;55.228;36.450;2023-06-14T03:36:47;9.02;;;5.03;;
51048;SDS011;37084;55.228;36.450;2023-06-14T03:39:49;8.80;;;4.85;;
51048;SDS011;37084;55.228;36.450;2023-06-14T03:42:55;8.35;;;4.70;;
51048;SDS011;37084;55.228;36.450;2023-06-14T03:45:57;7.05;;;4.35;;
51048;SDS011;37084;55.228;36.450;2023-06-14T03:49:00;7.22;;;4.18;;
51048;SDS011;37084;55.228;36.450;2023-06-14T03:52:01;8.52;;;4.53;;
51048;SDS011;37084;55.228;36.450;2023-06-14T03:55:03;9.52;;;4.72;;
51048;SDS011;37084;55.228;36.450;2023-06-14T03:58:06;10.40;;;5.20;;
51048;SDS011;37084;55.228;36.450;2023-06-14T04:01:10;8.45;;;4.95;;
51048;SDS011;37084;55.228;36.450;2023-06-14T04:04:13;9.18;;;5.47;;
51048;SDS011;37084;55.228;36.450;2023-06-14T04:07:17;9.48;;;4.82;;
51048;SDS011;37084;55.228;36.450;2023-06-14T04:10:21;13.90;;;5.85;;
51048;SDS011;37084;55.228;36.450;2023-06-14T04:13:23;9.60;;;5.55;;
51048;SDS011;37084;55.228;36.450;2023-06-14T04:16:24;10.88;;;5.55;;
51048;SDS011;37084;55.228;36.450;2023-06-14T04:19:25;9.68;;;6.03;;
51048;SDS011;37084;55.228;36.450;2023-06-14T04:22:27;8.05;;;5.00;;
51048;SDS011;37084;55.228;36.450;2023-06-14T04:25:33;7.82;;;5.15;;
51048;SDS011;37084;55.228;36.450;2023-06-14T04:28:35;7.35;;;4.72;;
51048;SDS011;37084;55.228;36.450;2023-06-14T04:31:43;9.80;;;5.38;;
51048;SDS011;37084;55.228;36.450;2023-06-14T04:34:45;7.50;;;4.32;;
51048;SDS011;37084;55.228;36.450;2023-06-14T04:37:48;8.38;;;4.78;;
51048;SDS011;37084;55.228;36.450;2023-06-14T04:40:49;7.50;;;4.70;;
51048;SDS011;37084;55.228;36.450;2023-06-14T04:43:55;10.07;;;4.28;;
51048;SDS011;37084;55.228;36.450;2023-06-14T04:46:57;6.72;;;4.10;;
51048;SDS011;37084;55.228;36.450;2023-06-14T04:49:59;5.20;;;3.53;;
51048;SDS011;37084;55.228;36.450;2023-06-14T04:53:05;7.18;;;4.05;;
51048;SDS011;37084;55.228;36.450;2023-06-14T04:56:08;4.13;;;2.50;;
51048;SDS011;37084;55.228;36.450;2023-06-14T04:59:10;6.38;;;2.47;;
51048;SDS011;37084;55.228;36.450;2023-06-14T05:02:12;4.75;;;2.13;;
51048;SDS011;37084;55.228;36.450;2023-06-14T05:05:14;3.97;;;1.73;;
51048;SDS011;37084;55.228;36.450;2023-06-14T05:08:17;4.97;;;1.55;;
51048;SDS011;37084;55.228;36.450;2023-06-14T05:11:20;5.32;;;2.10;;
51048;SDS011;37084;55.228;36.450;2023-06-14T05:14:22;3.88;;;1.70;;
51048;SDS011;37084;55.228;36.450;2023-06-14T05:17:25;2.97;;;1.48;;
51048;SDS011;37084;55.228;36.450;2023-06-14T05:20:29;5.22;;;1.67;;
51048;SDS011;37084;55.228;36.450;2023-06-14T05:23:31;3.40;;;1.63;;
51048;SDS011;37084;55.228;36.450;2023-06-14T05:26:32;3.08;;;1.63;;
51048;SDS011;37084;55.228;36.450;2023-06-14T05:29:34;4.07;;;1.75;;
51048;SDS011;37084;55.228;36.450;2023-06-14T05:32:35;3.60;;;2.17;;
51048;SDS011;37084;55.228;36.450;2023-06-14T05:35:36;3.92;;;1.70;;
51048;SDS011;37084;55.228;36.450;2023-06-14T05:38:38;4.75;;;2.05;;
51048;SDS011;37084;55.228;36.450;2023-06-14T05:41:40;4.47;;;1.98;;
51048;SDS011;37084;55.228;36.450;2023-06-14T05:44:41;4.32;;;1.75;;
51048;SDS011;37084;55.228;36.450;2023-06-14T05:47:42;5.85;;;2.30;;
51048;SDS011;37084;55.228;36.450;2023-06-14T05:50:43;3.75;;;1.50;;
51048;SDS011;37084;55.228;36.450;2023-06-14T05:53:45;4.93;;;1.67;;
51048;SDS011;37084;55.228;36.450;2023-06-14T05:56:48;5.63;;;1.90;;
51048;SDS011;37084;55.228;36.450;2023-06-14T05:59:49;3.70;;;1.58;;
51048;SDS011;37084;55.228;36.450;2023-06-14T06:02:51;3.42;;;1.98;;
51048;SDS011;37084;55.228;36.450;2023-06-14T06:05:53;4.45;;;2.00;;
51048;SDS011;37084;55.228;36.450;2023-06-14T06:08:54;4.32;;;2.05;;
51048;SDS011;37084;55.228;36.450;2023-06-14T06:11:55;3.95;;;1.95;;
51048;SDS011;37084;55.228;36.450;2023-06-14T06:14:59;4.63;;;2.00;;
51048;SDS011;37084;55.228;36.450;2023-06-14T06:18:01;3.03;;;1.95;;
51048;SDS011;37084;55.228;36.450;2023-06-14T06:21:03;4.05;;;1.98;;
51048;SDS011;37084;55.228;36.450;2023-06-14T06:24:05;4.40;;;1.80;;
51048;SDS011;37084;55.228;36.450;2023-06-14T06:27:06;5.82;;;1.92;;
51048;SDS011;37084;55.228;36.450;2023-06-14T06:30:09;3.80;;;2.03;;
51048;SDS011;37084;55.228;36.450;2023-06-14T06:33:10;6.22;;;2.20;;
51048;SDS011;37084;55.228;36.450;2023-06-14T06:36:12;4.47;;;1.75;;
51048;SDS011;37084;55.228;36.450;2023-06-14T06:39:13;6.10;;;2.20;;
51048;SDS011;37084;55.228;36.450;2023-06-14T06:42:15;8.02;;;2.50;;
51048;SDS011;37084;55.228;36.450;2023-06-14T06:45:18;3.55;;;2.20;;
51048;SDS011;37084;55.228;36.450;2023-06-14T06:48:19;3.92;;;1.92;;
51048;SDS011;37084;55.228;36.450;2023-06-14T06:51:20;3.28;;;1.95;;
51048;SDS011;37084;55.228;36.450;2023-06-14T06:54:21;2.92;;;1.88;;
51048;SDS011;37084;55.228;36.450;2023-06-14T06:57:23;4.68;;;2.00;;
51048;SDS011;37084;55.228;36.450;2023-06-14T07:00:24;4.45;;;2.38;;
51048;SDS011;37084;55.228;36.450;2023-06-14T07:03:25;3.67;;;2.40;;
51048;SDS011;37084;55.228;36.450;2023-06-14T07:06:27;4.53;;;2.22;;
51048;SDS011;37084;55.228;36.450;2023-06-14T07:09:29;2.55;;;2.22;;
51048;SDS011;37084;55.228;36.450;2023-06-14T07:12:30;3.72;;;2.30;;
51048;SDS011;37084;55.228;36.450;2023-06-14T07:15:36;4.93;;;2.30;;
51048;SDS011;37084;55.228;36.450;2023-06-14T07:18:37;6.28;;;2.00;;
51048;SDS011;37084;55.228;36.450;2023-06-14T07:21:38;5.70;;;2.10;;
51048;SDS011;37084;55.228;36.450;2023-06-14T07:24:40;5.18;;;2.13;;
51048;SDS011;37084;55.228;36.450;2023-06-14T07:27:42;4.78;;;2.13;;
51048;SDS011;37084;55.228;36.450;2023-06-14T07:30:44;4.78;;;2.08;;
51048;SDS011;37084;55.228;36.450;2023-06-14T07:33:45;5.20;;;1.95;;
51048;SDS011;37084;55.228;36.450;2023-06-14T07:36:48;5.43;;;2.17;;
51048;SDS011;37084;55.228;36.450;2023-06-14T07:39:49;4.68;;;2.25;;
51048;SDS011;37084;55.228;36.450;2023-06-14T07:42:50;5.47;;;2.08;;
51048;SDS011;37084;55.228;36.450;2023-06-14T07:45:51;4.20;;;2.10;;
51048;SDS011;37084;55.228;36.450;2023-06-14T07:48:52;2.47;;;2.28;;
51048;SDS011;37084;55.228;36.450;2023-06-14T07:51:53;3.92;;;2.10;;
51048;SDS011;37084;55.228;36.450;2023-06-14T07:54:55;3.90;;;2.15;;
51048;SDS011;37084;55.228;36.450;2023-06-14T07:57:57;3.05;;;1.90;;
51048;SDS011;37084;55.228;36.450;2023-06-14T08:04:06;4.47;;;2.22;;
51048;SDS011;37084;55.228;36.450;2023-06-14T08:07:07;3.15;;;1.60;;
51048;SDS011;37084;55.228;36.450;2023-06-14T08:10:09;3.38;;;2.10;;
51048;SDS011;37084;55.228;36.450;2023-06-14T08:13:11;6.07;;;2.30;;
51048;SDS011;37084;55.228;36.450;2023-06-14T08:16:13;4.43;;;2.17;;
51048;SDS011;37084;55.228;36.450;2023-06-14T08:19:15;3.35;;;2.20;;
51048;SDS011;37084;55.228;36.450;2023-06-14T08:22:19;4.68;;;2.30;;
51048;SDS011;37084;55.228;36.450;2023-06-14T08:25:22;3.28;;;2.33;;
51048;SDS011;37084;55.228;36.450;2023-06-14T08:28:25;6.00;;;2.85;;
51048;SDS011;37084;55.228;36.450;2023-06-14T08:31:26;3.58;;;2.00;;
51048;SDS011;37084;55.228;36.450;2023-06-14T08:34:28;5.07;;;2.45;;
51048;SDS011;37084;55.228;36.450;2023-06-14T08:37:30;3.88;;;2.03;;
51048;SDS011;37084;55.228;36.450;2023-06-14T08:40:32;3.53;;;2.15;;
51048;SDS011;37084;55.228;36.450;2023-06-14T08:43:38;5.45;;;2.90;;
51048;SDS011;37084;55.228;36.450;2023-06-14T08:46:40;4.15;;;2.25;;
51048;SDS011;37084;55.228;36.450;2023-06-14T08:49:45;5.60;;;2.35;;
51048;SDS011;37084;55.228;36.450;2023-06-14T08:52:51;3.53;;;2.42;;
51048;SDS011;37084;55.228;36.450;2023-06-14T08:55:54;3.83;;;2.60;;
51048;SDS011;37084;55.228;36.450;2023-06-14T08:58:57;3.85;;;2.60;;
51048;SDS011;37084;55.228;36.450;2023-06-14T09:02:02;5.65;;;2.53;;
51048;SDS011;37084;55.228;36.450;2023-06-14T09:05:03;5.88;;;2.50;;
51048;SDS011;37084;55.228;36.450;2023-06-14T09:08:05;3.45;;;2.25;;
51048;SDS011;37084;55.228;36.450;2023-06-14T09:11:08;4.22;;;2.70;;
51048;SDS011;37084;55.228;36.450;2023-06-14T09:14:09;3.47;;;2.42;;
51048;SDS011;37084;55.228;36.450;2023-06-14T09:17:13;7.30;;;2.97;;
51048;SDS011;37084;55.228;36.450;2023-06-14T09:20:14;4.97;;;2.75;;
51048;SDS011;37084;55.228;36.450;2023-06-14T09:23:22;4.80;;;2.58;;
51048;SDS011;37084;55.228;36.450;2023-06-14T09:26:25;6.43;;;2.80;;
51048;SDS011;37084;55.228;36.450;2023-06-14T09:29:28;5.28;;;3.08;;
51048;SDS011;37084;55.228;36.450;2023-06-14T09:32:31;5.68;;;2.90;;
51048;SDS011;37084;55.228;36.450;2023-06-14T09:35:32;5.47;;;2.75;;
51048;SDS011;37084;55.228;36.450;2023-06-14T09:38:34;5.43;;;3.22;;
51048;SDS011;37084;55.228;36.450;2023-06-14T09:41:37;6.47;;;2.60;;
51048;SDS011;37084;55.228;36.450;2023-06-14T09:44:41;5.93;;;2.85;;
51048;SDS011;37084;55.228;36.450;2023-06-14T09:47:43;5.35;;;2.65;;
51048;SDS011;37084;55.228;36.450;2023-06-14T09:50:45;5.47;;;3.03;;
51048;SDS011;37084;55.228;36.450;2023-06-14T09:53:48;5.15;;;3.25;;
51048;SDS011;37084;55.228;36.450;2023-06-14T09:56:51;4.80;;;2.85;;
51048;SDS011;37084;55.228;36.450;2023-06-14T09:59:53;4.95;;;3.10;;
51048;SDS011;37084;55.228;36.450;2023-06-14T10:03:13;5.38;;;2.95;;
51048;SDS011;37084;55.228;36.450;2023-06-14T10:06:17;5.18;;;3.38;;
51048;SDS011;37084;55.228;36.450;2023-06-14T10:09:18;5.50;;;3.05;;
51048;SDS011;37084;55.228;36.450;2023-06-14T10:12:20;4.47;;;2.33;;
51048;SDS011;37084;55.228;36.450;2023-06-14T10:18:58;3.72;;;2.72;;
51048;SDS011;37084;55.228;36.450;2023-06-14T10:22:02;4.32;;;2.55;;
51048;SDS011;37084;55.228;36.450;2023-06-14T10:25:10;4.55;;;2.35;;
51048;SDS011;37084;55.228;36.450;2023-06-14T10:28:14;3.42;;;2.75;;
51048;SDS011;37084;55.228;36.450;2023-06-14T10:31:17;5.82;;;2.70;;
51048;SDS011;37084;55.228;36.450;2023-06-14T10:34:22;6.72;;;2.53;;
51048;SDS011;37084;55.228;36.450;2023-06-14T10:37:24;5.45;;;2.70;;
51048;SDS011;37084;55.228;36.450;2023-06-14T10:40:29;4.95;;;2.92;;
51048;SDS011;37084;55.228;36.450;2023-06-14T10:43:31;8.10;;;3.10;;
51048;SDS011;37084;55.228;36.450;2023-06-14T10:46:33;6.78;;;2.72;;
51048;SDS011;37084;55.228;36.450;2023-06-14T10:49:40;5.20;;;2.75;;
51048;SDS011;37084;55.228;36.450;2023-06-14T10:52:46;4.70;;;2.47;;
51048;SDS011;37084;55.228;36.450;2023-06-14T10:55:49;5.13;;;2.55;;
51048;SDS011;37084;55.228;36.450;2023-06-14T10:58:51;5.68;;;2.67;;
51048;SDS011;37084;55.228;36.450;2023-06-14T11:05:02;3.45;;;2.25;;
51048;SDS011;37084;55.228;36.450;2023-06-14T11:11:31;5.45;;;3.13;;
51048;SDS011;37084;55.228;36.450;2023-06-14T11:14:38;5.03;;;2.90;;
51048;SDS011;37084;55.228;36.450;2023-06-14T11:17:49;4.47;;;2.53;;
51048;SDS011;37084;55.228;36.450;2023-06-14T11:20:54;4.90;;;2.83;;
51048;SDS011;37084;55.228;36.450;2023-06-14T11:23:55;4.65;;;2.83;;
51048;SDS011;37084;55.228;36.450;2023-06-14T11:26:57;6.53;;;2.92;;
51048;SDS011;37084;55.228;36.450;2023-06-14T11:29:58;5.13;;;3.15;;
51048;SDS011;37084;55.228;36.450;2023-06-14T11:32:59;5.70;;;3.28;;
51048;SDS011;37084;55.228;36.450;2023-06-14T11:36:01;8.38;;;3.25;;
51048;SDS011;37084;55.228;36.450;2023-06-14T11:39:06;5.55;;;2.65;;
51048;SDS011;37084;55.228;36.450;2023-06-14T11:42:13;5.63;;;2.92;;
51048;SDS011;37084;55.228;36.450;2023-06-14T11:45:17;6.78;;;2.80;;
51048;SDS011;37084;55.228;36.450;2023-06-14T11:48:19;4.22;;;2.85;;
51048;SDS011;37084;55.228;36.450;2023-06-14T11:51:20;3.65;;;2.67;;
51048;SDS011;37084;55.228;36.450;2023-06-14T11:54:22;4.97;;;2.90;;
51048;SDS011;37084;55.228;36.450;2023-06-14T11:57:24;4.68;;;3.10;;
51048;SDS011;37084;55.228;36.450;2023-06-14T12:00:26;5.68;;;2.60;;
51048;SDS011;37084;55.228;36.450;2023-06-14T12:03:28;6.20;;;3.05;;
51048;SDS011;37084;55.228;36.450;2023-06-14T12:06:30;5.22;;;2.97;;
51048;SDS011;37084;55.228;36.450;2023-06-14T12:09:36;4.10;;;3.05;;
51048;SDS011;37084;55.228;36.450;2023-06-14T12:12:41;7.47;;;2.72;;
51048;SDS011;37084;55.228;36.450;2023-06-14T12:15:44;5.45;;;3.10;;
51048;SDS011;37084;55.228;36.450;2023-06-14T12:18:45;5.28;;;3.03;;
51048;SDS011;37084;55.228;36.450;2023-06-14T12:21:47;4.10;;;2.58;;
51048;SDS011;37084;55.228;36.450;2023-06-14T12:24:53;5.80;;;2.90;;
51048;SDS011;37084;55.228;36.450;2023-06-14T12:27:54;5.32;;;2.92;;
51048;SDS011;37084;55.228;36.450;2023-06-14T12:30:56;6.55;;;2.78;;
51048;SDS011;37084;55.228;36.450;2023-06-14T12:33:59;6.35;;;2.92;;
51048;SDS011;37084;55.228;36.450;2023-06-14T12:37:01;5.47;;;2.72;;
51048;SDS011;37084;55.228;36.450;2023-06-14T12:40:04;6.32;;;2.78;;
51048;SDS011;37084;55.228;36.450;2023-06-14T12:43:06;4.88;;;3.08;;
51048;SDS011;37084;55.228;36.450;2023-06-14T12:46:07;6.22;;;3.45;;
51048;SDS011;37084;55.228;36.450;2023-06-14T12:49:12;5.07;;;2.80;;
51048;SDS011;37084;55.228;36.450;2023-06-14T12:52:13;6.65;;;2.83;;
51048;SDS011;37084;55.228;36.450;2023-06-14T12:55:14;7.22;;;2.78;;
51048;SDS011;37084;55.228;36.450;2023-06-14T12:58:15;4.53;;;2.80;;
51048;SDS011;37084;55.228;36.450;2023-06-14T13:01:18;4.82;;;2.95;;
51048;SDS011;37084;55.228;36.450;2023-06-14T13:04:19;3.67;;;2.85;;
51048;SDS011;37084;55.228;36.450;2023-06-14T13:07:21;4.40;;;3.13;;
51048;SDS011;37084;55.228;36.450;2023-06-14T13:10:22;4.05;;;2.72;;
51048;SDS011;37084;55.228;36.450;2023-06-14T13:13:23;5.55;;;2.70;;
51048;SDS011;37084;55.228;36.450;2023-06-14T13:16:25;5.50;;;2.83;;
51048;SDS011;37084;55.228;36.450;2023-06-14T13:19:26;4.88;;;3.05;;
51048;SDS011;37084;55.228;36.450;2023-06-14T13:22:27;3.92;;;3.15;;
51048;SDS011;37084;55.228;36.450;2023-06-14T13:25:28;5.90;;;2.88;;
51048;SDS011;37084;55.228;36.450;2023-06-14T13:28:29;5.18;;;2.63;;
51048;SDS011;37084;55.228;36.450;2023-06-14T13:31:32;4.97;;;2.97;;
51048;SDS011;37084;55.228;36.450;2023-06-14T13:34:33;6.63;;;2.95;;
51048;SDS011;37084;55.228;36.450;2023-06-14T13:37:35;5.97;;;2.85;;
51048;SDS011;37084;55.228;36.450;2023-06-14T13:40:36;6.50;;;3.88;;
51048;SDS011;37084;55.228;36.450;2023-06-14T13:43:37;5.28;;;3.13;;
51048;SDS011;37084;55.228;36.450;2023-06-14T13:46:38;5.97;;;3.10;;
51048;SDS011;37084;55.228;36.450;2023-06-14T13:49:40;5.45;;;3.03;;
51048;SDS011;37084;55.228;36.450;2023-06-14T13:52:41;7.55;;;3.00;;
51048;SDS011;37084;55.228;36.450;2023-06-14T13:55:43;4.72;;;2.92;;
51048;SDS011;37084;55.228;36.450;2023-06-14T13:58:44;7.60;;;3.30;;
51048;SDS011;37084;55.228;36.450;2023-06-14T14:01:46;4.03;;;3.00;;
51048;SDS011;37084;55.228;36.450;2023-06-14T14:04:48;5.75;;;2.60;;
51048;SDS011;37084;55.228;36.450;2023-06-14T14:07:54;8.45;;;3.53;;
51048;SDS011;37084;55.228;36.450;2023-06-14T14:10:55;5.82;;;2.90;;
51048;SDS011;37084;55.228;36.450;2023-06-14T14:13:57;7.78;;;2.78;;
51048;SDS011;37084;55.228;36.450;2023-06-14T14:16:58;7.35;;;3.03;;
51048;SDS011;37084;55.228;36.450;2023-06-14T14:19:59;5.32;;;3.10;;
51048;SDS011;37084;55.228;36.450;2023-06-14T14:23:01;4.75;;;3.22;;
51048;SDS011;37084;55.228;36.450;2023-06-14T14:26:02;5.22;;;2.90;;
51048;SDS011;37084;55.228;36.450;2023-06-14T14:29:05;4.70;;;3.28;;
51048;SDS011;37084;55.228;36.450;2023-06-14T14:32:06;5.50;;;3.30;;
51048;SDS011;37084;55.228;36.450;2023-06-14T14:35:08;4.95;;;3.40;;
51048;SDS011;37084;55.228;36.450;2023-06-14T14:38:10;5.78;;;2.85;;
51048;SDS011;37084;55.228;36.450;2023-06-14T14:41:11;9.30;;;3.20;;
51048;SDS011;37084;55.228;36.450;2023-06-14T14:44:12;6.30;;;3.47;;
51048;SDS011;37084;55.228;36.450;2023-06-14T14:47:13;5.80;;;3.30;;
51048;SDS011;37084;55.228;36.450;2023-06-14T14:50:14;6.50;;;3.28;;
51048;SDS011;37084;55.228;36.450;2023-06-14T14:53:17;6.00;;;3.00;;
51048;SDS011;37084;55.228;36.450;2023-06-14T14:56:18;7.78;;;3.45;;
51048;SDS011;37084;55.228;36.450;2023-06-14T14:59:19;6.78;;;3.28;;
51048;SDS011;37084;55.228;36.450;2023-06-14T15:02:22;4.28;;;3.13;;
51048;SDS011;37084;55.228;36.450;2023-06-14T15:05:24;4.30;;;2.72;;
51048;SDS011;37084;55.228;36.450;2023-06-14T15:08:26;5.65;;;2.80;;
51048;SDS011;37084;55.228;36.450;2023-06-14T15:11:27;7.93;;;3.15;;
51048;SDS011;37084;55.228;36.450;2023-06-14T15:14:29;4.40;;;2.90;;
51048;SDS011;37084;55.228;36.450;2023-06-14T15:17:30;4.68;;;2.72;;
51048;SDS011;37084;55.228;36.450;2023-06-14T15:20:32;5.88;;;2.67;;
51048;SDS011;37084;55.228;36.450;2023-06-14T15:23:34;4.70;;;3.15;;
51048;SDS011;37084;55.228;36.450;2023-06-14T15:26:35;5.10;;;2.95;;
51048;SDS011;37084;55.228;36.450;2023-06-14T15:29:36;4.88;;;2.88;;
51048;SDS011;37084;55.228;36.450;2023-06-14T15:32:38;6.07;;;3.10;;
51048;SDS011;37084;55.228;36.450;2023-06-14T15:35:39;5.97;;;3.05;;
51048;SDS011;37084;55.228;36.450;2023-06-14T15:38:40;6.22;;;2.95;;
51048;SDS011;37084;55.228;36.450;2023-06-14T15:41:42;6.10;;;3.00;;
51048;SDS011;37084;55.228;36.450;2023-06-14T15:44:43;5.10;;;3.60;;
51048;SDS011;37084;55.228;36.450;2023-06-14T15:47:44;5.07;;;3.33;;
51048;SDS011;37084;55.228;36.450;2023-06-14T15:50:45;7.50;;;3.20;;
51048;SDS011;37084;55.228;36.450;2023-06-14T15:53:47;5.63;;;2.72;;
51048;SDS011;37084;55.228;36.450;2023-06-14T15:56:48;6.72;;;2.95;;
51048;SDS011;37084;55.228;36.450;2023-06-14T15:59:49;5.95;;;2.92;;
51048;SDS011;37084;55.228;36.450;2023-06-14T16:02:51;7.97;;;3.35;;
51048;SDS011;37084;55.228;36.450;2023-06-14T16:05:55;5.40;;;3.05;;
51048;SDS011;37084;55.228;36.450;2023-06-14T16:08:57;5.32;;;2.83;;
51048;SDS011;37084;55.228;36.450;2023-06-14T16:12:00;3.88;;;2.95;;
51048;SDS011;37084;55.228;36.450;2023-06-14T16:15:02;5.65;;;3.00;;
51048;SDS011;37084;55.228;36.450;2023-06-14T16:18:05;5.93;;;2.95;;
51048;SDS011;37084;55.228;36.450;2023-06-14T16:21:06;5.78;;;2.78;;
51048;SDS011;37084;55.228;36.450;2023-06-14T16:27:10;5.03;;;3.30;;
51048;SDS011;37084;55.228;36.450;2023-06-14T16:30:13;5.50;;;3.28;;
51048;SDS011;37084;55.228;36.450;2023-06-14T16:33:14;4.47;;;3.13;;
51048;SDS011;37084;55.228;36.450;2023-06-14T16:36:15;5.93;;;3.35;;
51048;SDS011;37084;55.228;36.450;2023-06-14T16:39:17;6.93;;;3.10;;
51048;SDS011;37084;55.228;36.450;2023-06-14T16:42:18;7.00;;;3.47;;
51048;SDS011;37084;55.228;36.450;2023-06-14T16:45:19;5.00;;;3.20;;
51048;SDS011;37084;55.228;36.450;2023-06-14T16:48:20;4.28;;;2.72;;
51048;SDS011;37084;55.228;36.450;2023-06-14T16:51:21;4.82;;;3.05;;
51048;SDS011;37084;55.228;36.450;2023-06-14T16:54:23;5.18;;;3.00;;
51048;SDS011;37084;55.228;36.450;2023-06-14T16:57:24;8.02;;;2.97;;
51048;SDS011;37084;55.228;36.450;2023-06-14T17:00:25;5.70;;;3.20;;
51048;SDS011;37084;55.228;36.450;2023-06-14T17:03:27;6.07;;;3.00;;
51048;SDS011;37084;55.228;36.450;2023-06-14T17:06:28;6.65;;;3.08;;
51048;SDS011;37084;55.228;36.450;2023-06-14T17:09:29;5.82;;;3.13;;
51048;SDS011;37084;55.228;36.450;2023-06-14T17:12:30;5.95;;;2.92;;
51048;SDS011;37084;55.228;36.450;2023-06-14T17:15:31;6.35;;;2.70;;
51048;SDS011;37084;55.228;36.450;2023-06-14T17:18:36;5.90;;;2.92;;
51048;SDS011;37084;55.228;36.450;2023-06-14T17:21:37;7.75;;;3.08;;
51048;SDS011;37084;55.228;36.450;2023-06-14T17:24:38;6.45;;;3.17;;
51048;SDS011;37084;55.228;36.450;2023-06-14T17:27:40;8.10;;;3.10;;
51048;SDS011;37084;55.228;36.450;2023-06-14T17:30:41;6.50;;;2.88;;
51048;SDS011;37084;55.228;36.450;2023-06-14T17:33:43;6.13;;;3.13;;
51048;SDS011;37084;55.228;36.450;2023-06-14T17:36:44;9.13;;;3.00;;
51048;SDS011;37084;55.228;36.450;2023-06-14T17:39:45;5.78;;;2.92;;
51048;SDS011;37084;55.228;36.450;2023-06-14T17:42:46;6.07;;;2.90;;
51048;SDS011;37084;55.228;36.450;2023-06-14T17:45:47;4.40;;;3.10;;
51048;SDS011;37084;55.228;36.450;2023-06-14T17:48:48;5.68;;;2.63;;
51048;SDS011;37084;55.228;36.450;2023-06-14T17:51:50;4.63;;;3.25;;
51048;SDS011;37084;55.228;36.450;2023-06-14T17:54:52;8.60;;;2.92;;
51048;SDS011;37084;55.228;36.450;2023-06-14T17:57:53;6.93;;;2.97;;
51048;SDS011;37084;55.228;36.450;2023-06-14T18:00:54;4.20;;;2.67;;
51048;SDS011;37084;55.228;36.450;2023-06-14T18:03:55;5.00;;;3.30;;
51048;SDS011;37084;55.228;36.450;2023-06-14T18:06:57;4.25;;;3.25;;
51048;SDS011;37084;55.228;36.450;2023-06-14T18:09:58;7.25;;;3.20;;
51048;SDS011;37084;55.228;36.450;2023-06-14T18:12:59;6.32;;;3.13;;
51048;SDS011;37084;55.228;36.450;2023-06-14T18:16:01;6.03;;;2.95;;
51048;SDS011;37084;55.228;36.450;2023-06-14T18:19:02;4.75;;;2.90;;